createdAt,value
2023-03-31T00:01:24.249Z,2.00
2023-03-31T00:03:52.456Z,1.90
2023-03-31T00:06:20.562Z,1.90
2023-03-31T00:08:51.931Z,2.00
2023-03-31T00:11:21.730Z,2.00
2023-03-31T00:13:49.805Z,2.00
2023-03-31T00:16:19.266Z,2.10
2023-03-31T00:18:50.809Z,2.10
2023-03-31T00:21:33.694Z,2.10
2023-03-31T00:24:03.742Z,2.10
2023-03-31T00:26:32.271Z,2.10
2023-03-31T00:29:01.007Z,2.10
2023-03-31T00:31:31.022Z,2.20
2023-03-31T00:33:59.337Z,2.20
2023-03-31T00:36:28.945Z,2.20
2023-03-31T00:38:59.941Z,2.20
2023-03-31T00:41:29.707Z,2.20
2023-03-31T00:44:09.863Z,2.20
2023-03-31T00:46:44.629Z,2.30
2023-03-31T00:49:21.829Z,2.20
2023-03-31T00:51:52.318Z,2.30
2023-03-31T00:54:23.341Z,2.20
2023-03-31T00:56:55.566Z,2.20
2023-03-31T00:59:28.567Z,2.20
2023-03-31T01:02:02.726Z,2.20
2023-03-31T01:04:34.562Z,2.20
2023-03-31T01:07:09.349Z,2.20
2023-03-31T01:09:38.938Z,2.10
2023-03-31T01:12:10.330Z,2.10
2023-03-31T01:14:38.380Z,2.00
2023-03-31T01:17:10.532Z,2.00
2023-03-31T01:19:51.941Z,1.90
2023-03-31T01:23:01.613Z,1.90
2023-03-31T01:25:50.414Z,1.90
2023-03-31T01:28:27.191Z,1.90
2023-03-31T01:31:18.771Z,1.90
2023-03-31T01:34:24.396Z,1.90
2023-03-31T01:37:32.753Z,1.90
2023-03-31T01:40:38.856Z,2.10
2023-03-31T01:43:13.786Z,2.20
2023-03-31T01:45:54.268Z,2.20
2023-03-31T01:48:30.186Z,2.30
2023-03-31T01:51:01.814Z,2.30
2023-03-31T01:53:37.135Z,2.30
2023-03-31T01:56:11.745Z,2.30
2023-03-31T01:58:43.955Z,2.30
2023-03-31T02:01:18.002Z,2.30
2023-03-31T02:03:50.757Z,2.20
2023-03-31T02:06:24.524Z,2.20
2023-03-31T02:08:56.737Z,2.20
2023-03-31T02:11:29.490Z,2.20
2023-03-31T02:14:01.846Z,2.10
2023-03-31T02:16:32.731Z,2.20
2023-03-31T02:19:05.467Z,2.20
2023-03-31T02:21:35.331Z,2.20
2023-03-31T02:24:09.214Z,2.10
2023-03-31T02:26:42.631Z,2.10
2023-03-31T02:29:11.319Z,2.10
2023-03-31T02:31:47.784Z,2.20
2023-03-31T02:34:15.961Z,2.20
2023-03-31T02:36:46.466Z,2.30
2023-03-31T02:39:19.215Z,2.30
2023-03-31T02:41:48.731Z,2.30
2023-03-31T02:44:17.928Z,2.20
2023-03-31T02:46:47.048Z,2.30
2023-03-31T02:49:16.757Z,2.30
2023-03-31T02:52:23.850Z,2.30
2023-03-31T02:55:16.768Z,2.30
2023-03-31T02:58:09.916Z,2.20
2023-03-31T03:00:50.651Z,2.20
2023-03-31T03:03:30.112Z,2.20
2023-03-31T03:06:07.237Z,2.10
2023-03-31T03:09:18.414Z,2.10
2023-03-31T03:11:50.671Z,2.10
2023-03-31T03:14:28.602Z,2.00
2023-03-31T03:17:02.570Z,2.00
2023-03-31T03:19:31.074Z,2.10
2023-03-31T03:21:59.445Z,2.00
2023-03-31T03:24:29.618Z,1.90
2023-03-31T03:26:58.586Z,2.00
2023-03-31T03:29:28.190Z,2.00
2023-03-31T03:31:56.440Z,2.00
2023-03-31T03:34:25.615Z,2.10
2023-03-31T03:36:53.724Z,2.10
2023-03-31T03:39:21.908Z,2.20
2023-03-31T03:41:49.934Z,2.20
2023-03-31T03:44:18.208Z,2.10
2023-03-31T03:46:47.760Z,2.10
2023-03-31T03:49:16.046Z,2.10
2023-03-31T03:51:44.091Z,2.20
2023-03-31T03:54:12.090Z,2.20
2023-03-31T03:56:40.160Z,2.10
2023-03-31T03:59:08.288Z,2.10
2023-03-31T04:01:37.195Z,2.10
2023-03-31T04:04:06.914Z,2.00
2023-03-31T04:06:35.236Z,2.00
2023-03-31T04:09:03.913Z,2.00
2023-03-31T04:11:32.402Z,2.00
2023-03-31T04:14:00.502Z,2.00
2023-03-31T04:16:28.559Z,2.10
2023-03-31T04:18:59.130Z,2.10
2023-03-31T04:21:30.690Z,2.20
2023-03-31T04:24:01.869Z,2.20
2023-03-31T04:26:38.991Z,2.30
2023-03-31T04:29:07.684Z,2.30
2023-03-31T04:31:38.812Z,2.20
2023-03-31T04:34:13.321Z,2.30
2023-03-31T04:36:47.318Z,2.20
2023-03-31T04:39:17.493Z,2.20
2023-03-31T04:41:45.715Z,2.20
2023-03-31T04:44:13.844Z,2.20
2023-03-31T04:46:41.863Z,2.10
2023-03-31T04:49:09.860Z,2.10
2023-03-31T04:51:37.886Z,2.10
2023-03-31T04:54:07.380Z,2.10
2023-03-31T04:56:35.620Z,2.10
2023-03-31T04:59:04.595Z,2.10
2023-03-31T05:01:36.378Z,2.00
2023-03-31T05:04:05.823Z,2.10
2023-03-31T05:06:34.380Z,2.10
2023-03-31T05:09:02.425Z,2.00
2023-03-31T05:11:31.769Z,1.90
2023-03-31T05:14:01.092Z,2.00
2023-03-31T05:16:29.237Z,2.00
2023-03-31T05:18:57.275Z,2.00
2023-03-31T05:21:26.886Z,2.20
2023-03-31T05:23:55.174Z,2.20
2023-03-31T05:26:25.030Z,2.20
2023-03-31T05:28:54.859Z,2.20
2023-03-31T05:31:23.121Z,2.20
2023-03-31T05:33:51.926Z,2.20
2023-03-31T05:36:20.046Z,2.20
2023-03-31T05:38:48.306Z,2.20
2023-03-31T05:41:17.050Z,2.30
2023-03-31T05:43:45.194Z,2.30
2023-03-31T05:46:14.598Z,2.30
2023-03-31T05:48:42.638Z,2.40
2023-03-31T05:51:10.696Z,2.40
2023-03-31T05:53:38.691Z,2.40
2023-03-31T05:56:08.076Z,2.40
2023-03-31T05:58:36.695Z,2.50
2023-03-31T06:01:10.164Z,2.40
2023-03-31T06:03:42.196Z,2.40
2023-03-31T06:06:12.996Z,2.50
2023-03-31T06:08:41.338Z,2.50
2023-03-31T06:11:11.331Z,2.50
2023-03-31T06:13:40.537Z,2.50
2023-03-31T06:16:09.017Z,2.50
2023-03-31T06:18:38.852Z,2.50
2023-03-31T06:21:07.205Z,2.50
2023-03-31T06:23:36.101Z,2.50
2023-03-31T06:26:07.161Z,2.50
2023-03-31T06:28:35.410Z,2.50
2023-03-31T06:31:04.646Z,2.40
2023-03-31T06:33:33.135Z,2.40
2023-03-31T06:36:05.614Z,2.30
2023-03-31T06:38:34.693Z,2.40
2023-03-31T06:41:03.309Z,2.40
2023-03-31T06:43:31.761Z,2.50
2023-03-31T06:46:00.213Z,2.50
2023-03-31T06:48:28.801Z,2.50
2023-03-31T06:51:00.840Z,2.60
2023-03-31T06:53:30.964Z,2.50
2023-03-31T06:55:59.379Z,2.60
2023-03-31T06:58:30.532Z,2.60
2023-03-31T07:00:59.673Z,2.60
2023-03-31T07:03:29.657Z,2.60
2023-03-31T07:05:57.934Z,2.60
2023-03-31T07:08:26.161Z,2.50
2023-03-31T07:10:58.731Z,2.60
2023-03-31T07:13:27.422Z,2.70
2023-03-31T07:15:55.882Z,2.80
2023-03-31T07:18:26.239Z,2.90
2023-03-31T07:20:54.592Z,2.80
2023-03-31T07:23:22.672Z,2.90
2023-03-31T07:25:50.723Z,2.90
2023-03-31T07:28:20.127Z,3.00
2023-03-31T07:30:48.147Z,3.10
2023-03-31T07:33:16.260Z,3.10
2023-03-31T07:35:44.453Z,3.20
2023-03-31T07:38:13.715Z,3.20
2023-03-31T07:40:45.189Z,3.10
2023-03-31T07:43:13.417Z,3.20
2023-03-31T07:45:42.760Z,3.20
2023-03-31T07:48:10.930Z,3.00
2023-03-31T07:50:39.004Z,3.10
2023-03-31T07:53:15.073Z,3.00
2023-03-31T07:55:43.104Z,3.00
2023-03-31T07:58:11.801Z,3.00
2023-03-31T08:00:39.867Z,2.90
2023-03-31T08:03:09.208Z,2.90
2023-03-31T08:05:37.358Z,2.90
2023-03-31T08:08:05.403Z,3.10
2023-03-31T08:10:33.427Z,3.10
2023-03-31T08:13:01.382Z,3.00
2023-03-31T08:15:30.011Z,3.10
2023-03-31T08:17:58.024Z,3.00
2023-03-31T08:20:27.494Z,3.00
2023-03-31T08:22:55.523Z,2.90
2023-03-31T08:25:23.905Z,2.90
2023-03-31T08:27:51.958Z,3.00
2023-03-31T08:30:21.453Z,3.00
2023-03-31T08:32:49.521Z,3.10
2023-03-31T08:35:17.611Z,3.20
2023-03-31T08:37:47.672Z,3.40
2023-03-31T08:40:20.021Z,3.40
2023-03-31T08:42:51.767Z,3.40
2023-03-31T08:45:24.356Z,3.50
2023-03-31T08:47:55.599Z,3.50
2023-03-31T08:50:26.878Z,3.60
2023-03-31T08:53:04.932Z,3.50
2023-03-31T08:55:40.906Z,3.70
2023-03-31T08:58:17.058Z,3.70
2023-03-31T09:00:52.263Z,3.90
2023-03-31T09:03:26.099Z,3.80
2023-03-31T09:06:01.236Z,3.70
2023-03-31T09:08:38.314Z,3.70
2023-03-31T09:11:20.309Z,3.80
2023-03-31T09:14:17.728Z,3.80
2023-03-31T09:16:54.475Z,3.70
2023-03-31T09:19:33.155Z,3.60
2023-03-31T09:22:02.084Z,3.50
2023-03-31T09:24:35.288Z,3.60
2023-03-31T09:27:04.635Z,3.60
2023-03-31T09:29:44.848Z,3.60
2023-03-31T09:32:17.373Z,3.60
2023-03-31T09:34:46.678Z,3.60
2023-03-31T09:37:14.919Z,3.60
2023-03-31T09:39:44.652Z,3.50
2023-03-31T09:42:14.200Z,3.50
2023-03-31T09:44:45.012Z,3.60
2023-03-31T09:47:20.237Z,3.60
2023-03-31T09:49:54.121Z,3.50
2023-03-31T09:52:29.213Z,3.50
2023-03-31T09:55:02.201Z,3.50
2023-03-31T09:57:33.745Z,3.50
2023-03-31T10:00:16.180Z,3.50
2023-03-31T10:02:45.868Z,3.50
2023-03-31T10:05:27.063Z,3.40
2023-03-31T10:08:13.228Z,3.40
2023-03-31T10:10:46.598Z,3.50
2023-03-31T10:13:18.364Z,3.40
2023-03-31T10:15:46.755Z,3.30
2023-03-31T10:18:15.732Z,3.40
2023-03-31T10:20:50.065Z,3.50
2023-03-31T10:23:24.007Z,3.50
2023-03-31T10:25:54.004Z,3.50
2023-03-31T10:28:23.588Z,3.50
2023-03-31T10:30:53.486Z,3.60
2023-03-31T10:33:25.663Z,3.60
2023-03-31T10:35:57.865Z,3.50
2023-03-31T10:38:30.365Z,3.50
2023-03-31T10:41:00.914Z,3.60
2023-03-31T10:43:31.019Z,3.60
2023-03-31T10:46:01.244Z,3.50
2023-03-31T10:48:31.380Z,3.50
2023-03-31T10:51:05.144Z,3.50
2023-03-31T10:53:41.229Z,3.50
2023-03-31T10:56:26.428Z,3.50
2023-03-31T10:59:07.167Z,3.40
2023-03-31T11:01:48.812Z,3.40
2023-03-31T11:04:41.098Z,3.30
2023-03-31T11:07:17.471Z,3.30
2023-03-31T11:09:53.651Z,3.30
2023-03-31T11:12:31.185Z,3.30
2023-03-31T11:15:09.265Z,3.20
2023-03-31T11:18:02.920Z,3.20
2023-03-31T11:20:38.235Z,3.20
2023-03-31T11:23:15.592Z,3.10
2023-03-31T11:25:53.710Z,3.10
2023-03-31T11:28:42.787Z,3.20
2023-03-31T11:31:29.315Z,3.20
2023-03-31T11:34:35.816Z,3.10
2023-03-31T11:37:18.294Z,3.20
2023-03-31T11:39:59.465Z,3.20
2023-03-31T11:42:33.651Z,3.20
2023-03-31T11:45:13.092Z,3.20
2023-03-31T11:47:44.615Z,3.10
2023-03-31T11:50:15.968Z,3.10
2023-03-31T11:52:49.104Z,3.00
2023-03-31T11:55:21.832Z,3.00
2023-03-31T11:58:03.245Z,3.00
2023-03-31T12:00:37.440Z,3.00
2023-03-31T12:03:14.349Z,3.00
2023-03-31T12:05:46.734Z,3.00
2023-03-31T12:08:20.273Z,3.00
2023-03-31T12:10:52.934Z,3.00
2023-03-31T12:13:37.323Z,3.10
2023-03-31T12:16:12.988Z,3.10
2023-03-31T12:18:48.197Z,3.10
2023-03-31T12:21:16.802Z,3.10
2023-03-31T12:23:47.337Z,3.10
2023-03-31T12:26:29.602Z,3.10
2023-03-31T12:29:01.745Z,3.10
2023-03-31T12:31:33.330Z,3.00
2023-03-31T12:34:06.171Z,2.90
2023-03-31T12:36:49.011Z,2.90
2023-03-31T12:39:29.722Z,3.00
2023-03-31T12:42:25.548Z,3.00
2023-03-31T12:45:01.989Z,2.90
2023-03-31T12:47:44.764Z,2.90
2023-03-31T12:50:32.485Z,2.90
2023-03-31T12:53:11.638Z,2.90
2023-03-31T12:55:44.016Z,2.90
2023-03-31T12:58:44.409Z,2.90
2023-03-31T13:01:16.284Z,2.90
2023-03-31T13:03:51.547Z,2.90
2023-03-31T13:06:51.869Z,3.00
2023-03-31T13:09:53.064Z,3.00
2023-03-31T13:12:23.927Z,3.00
2023-03-31T13:14:54.288Z,3.00
2023-03-31T13:17:28.915Z,3.00
2023-03-31T13:20:16.944Z,3.00
2023-03-31T13:22:48.305Z,3.00
2023-03-31T13:25:49.254Z,3.10
2023-03-31T13:28:34.945Z,3.10
2023-03-31T13:31:04.387Z,3.10
2023-03-31T13:33:38.369Z,3.00
2023-03-31T13:36:36.592Z,3.00
2023-03-31T13:39:21.990Z,3.00
2023-03-31T13:42:00.155Z,3.00
2023-03-31T13:44:54.065Z,3.00
2023-03-31T13:47:54.497Z,2.90
2023-03-31T13:50:56.635Z,2.80
2023-03-31T13:53:37.909Z,2.70
2023-03-31T13:56:16.890Z,2.80
2023-03-31T13:59:13.137Z,2.70
2023-03-31T14:02:17.476Z,2.70
2023-03-31T14:05:07.601Z,2.70
2023-03-31T14:07:41.549Z,2.70
2023-03-31T14:10:24.867Z,2.70
2023-03-31T14:12:53.215Z,2.70
2023-03-31T14:15:22.548Z,2.60
2023-03-31T14:17:50.685Z,2.60
2023-03-31T14:20:33.299Z,2.60
2023-03-31T14:23:24.096Z,2.60
2023-03-31T14:26:00.596Z,2.60
2023-03-31T14:29:01.086Z,2.50
2023-03-31T14:31:35.560Z,2.40
2023-03-31T14:34:32.331Z,2.40
2023-03-31T14:37:02.281Z,2.50
2023-03-31T14:39:33.311Z,2.50
2023-03-31T14:42:06.689Z,2.50
2023-03-31T14:44:35.629Z,2.40
2023-03-31T14:47:03.643Z,2.40
2023-03-31T14:49:36.979Z,2.30
2023-03-31T14:52:15.777Z,2.30
2023-03-31T14:54:47.532Z,2.30
2023-03-31T14:57:20.713Z,2.30
2023-03-31T14:59:51.191Z,2.20
2023-03-31T15:02:24.809Z,2.20
2023-03-31T15:04:53.096Z,2.20
2023-03-31T15:07:21.132Z,2.20
2023-03-31T15:09:51.915Z,2.20
2023-03-31T15:12:23.590Z,2.20
2023-03-31T15:14:53.466Z,2.10
2023-03-31T15:17:23.413Z,2.20
2023-03-31T15:19:59.224Z,2.20
2023-03-31T15:22:28.854Z,2.20
2023-03-31T15:24:57.092Z,2.20
2023-03-31T15:27:37.833Z,2.20
2023-03-31T15:30:08.965Z,2.20
2023-03-31T15:32:39.059Z,2.10
2023-03-31T15:35:20.963Z,2.10
2023-03-31T15:37:53.059Z,2.10
2023-03-31T15:40:23.756Z,2.20
2023-03-31T15:43:06.437Z,2.20
2023-03-31T15:45:51.123Z,2.10
2023-03-31T15:48:24.603Z,2.10
2023-03-31T15:50:53.284Z,2.10
2023-03-31T15:53:36.031Z,2.10
2023-03-31T15:56:04.840Z,2.10
2023-03-31T15:58:56.784Z,2.10
2023-03-31T16:01:30.372Z,2.10
2023-03-31T16:03:59.166Z,2.00
2023-03-31T16:06:45.414Z,2.00
2023-03-31T16:09:17.439Z,2.00
2023-03-31T16:11:48.976Z,1.90
2023-03-31T16:14:23.672Z,1.90
2023-03-31T16:16:56.262Z,2.00
2023-03-31T16:19:27.677Z,2.00
2023-03-31T16:21:59.685Z,2.00
2023-03-31T16:24:32.346Z,2.00
2023-03-31T16:27:06.131Z,1.90
2023-03-31T16:29:37.042Z,1.90
2023-03-31T16:32:11.396Z,1.90
2023-03-31T16:34:54.454Z,1.90
2023-03-31T16:37:22.982Z,1.80
2023-03-31T16:39:51.350Z,1.80
2023-03-31T16:42:19.539Z,1.80
2023-03-31T16:44:59.855Z,1.70
2023-03-31T16:47:37.090Z,1.70
2023-03-31T16:50:07.324Z,1.60
2023-03-31T16:52:36.107Z,1.60
2023-03-31T16:55:04.308Z,1.50
2023-03-31T16:57:32.584Z,1.50
2023-03-31T17:00:02.012Z,1.50
2023-03-31T17:02:30.156Z,1.50
2023-03-31T17:05:06.210Z,1.50
2023-03-31T17:07:40.813Z,1.40
2023-03-31T17:10:09.864Z,1.40
2023-03-31T17:12:37.846Z,1.40
2023-03-31T17:15:08.565Z,1.40
2023-03-31T17:17:36.867Z,1.40
